Time;durP1;ratioP1;P1;durP2;ratioP2;P2;SDS_P1;SDS_P2;PMS_P1;PMS_P2;Temp;Humidity;BMP_temperature;BMP_pressure;BME280_temperature;BME280_humidity;BME280_pressure;Samples;Min_cycle;Max_cycle;Signal;HPM_P1;HPM_P2
2023/06/26 00:02:23;;;;;;;;;5.25;3.50;;;;;22.22;51.37;101112.56;5073736;27;73900;-79
2023/06/26 00:04:48;;;;;;;;;4.75;4.50;;;;;22.14;51.05;101112.28;5072447;28;62256;-79
2023/06/26 00:07:13;;;;;;;;;3.00;3.00;;;;;22.12;51.25;101117.72;5073167;27;65015;-79
2023/06/26 00:09:39;;;;;;;;;6.25;5.00;;;;;22.04;51.07;101117.38;5071615;27;64742;-79
2023/06/26 00:12:05;;;;;;;;;8.25;3.25;;;;;22.05;52.22;101134.25;5076386;27;48269;-78
2023/06/26 00:14:30;;;;;;;;;4.00;3.50;;;;;22.04;51.76;101129.88;5072744;27;47185;-79
2023/06/26 00:16:55;;;;;;;;;3.50;3.00;;;;;22.00;51.58;101126.56;5077487;28;45461;-79
2023/06/26 00:19:21;;;;;;;;;9.75;5.25;;;;;21.99;51.09;101124.84;5072983;27;45532;-79
2023/06/26 00:21:47;;;;;;;;;4.25;4.25;;;;;22.02;51.70;101139.78;5055967;28;48330;-78
2023/06/26 00:24:16;;;;;;;;;2.75;2.00;;;;;21.99;51.78;101140.84;5064722;28;45507;-79
2023/06/26 00:26:41;;;;;;;;;5.25;3.75;;;;;22.00;51.92;101140.72;5061947;28;45425;-78
2023/06/26 00:29:07;;;;;;;;;3.25;2.00;;;;;21.97;51.65;101135.63;5071217;27;68120;-78
2023/06/26 00:31:32;;;;;;;;;6.00;3.75;;;;;21.98;52.03;101144.47;5081415;27;56014;-79
2023/06/26 00:33:57;;;;;;;;;3.75;3.75;;;;;21.96;51.77;101141.06;5078411;27;45583;-78
2023/06/26 00:36:23;;;;;;;;;5.00;3.50;;;;;21.90;52.42;101144.13;5076243;28;53185;-79
2023/06/26 00:38:49;;;;;;;;;6.75;5.25;;;;;21.85;52.13;101147.13;5065112;27;45477;-79
2023/06/26 00:41:14;;;;;;;;;5.50;5.00;;;;;21.82;52.46;101152.66;5072537;27;47024;-79
2023/06/26 00:43:40;;;;;;;;;3.00;3.00;;;;;21.74;52.23;101152.31;5077993;27;45572;-78
2023/06/26 00:46:09;;;;;;;;;5.00;5.00;;;;;21.67;52.76;101156.34;5060790;28;45529;-79
2023/06/26 00:48:34;;;;;;;;;4.50;3.00;;;;;21.64;52.67;101157.44;5070423;28;45573;-79
2023/06/26 00:50:59;;;;;;;;;5.00;4.75;;;;;21.61;52.44;101149.63;5076635;27;66925;-78
2023/06/26 00:53:25;;;;;;;;;7.00;4.00;;;;;21.57;52.81;101158.78;5076145;27;65501;-78
2023/06/26 00:55:50;;;;;;;;;4.25;4.25;;;;;21.51;52.69;101159.19;5062795;28;51330;-78
2023/06/26 00:58:16;;;;;;;;;3.00;3.00;;;;;21.45;53.17;101156.91;5081182;27;45351;-79
2023/06/26 01:00:45;;;;;;;;;7.00;5.25;;;;;21.37;53.22;101158.25;5072338;27;45328;-78
2023/06/26 01:03:10;;;;;;;;;4.00;4.00;;;;;21.34;53.00;101163.78;5062245;28;45430;-78
2023/06/26 01:05:36;;;;;;;;;6.75;3.75;;;;;21.27;53.42;101172.28;5060854;28;47266;-78
2023/06/26 01:08:01;;;;;;;;;7.25;5.00;;;;;21.22;54.10;101165.44;5067823;27;58840;-78
2023/06/26 01:10:30;;;;;;;;;5.00;5.00;;;;;21.16;53.81;101165.84;5075610;27;46289;-78
2023/06/26 01:12:56;;;;;;;;;6.00;6.00;;;;;21.14;53.88;101167.75;5065757;27;45868;-78
2023/06/26 01:15:22;;;;;;;;;5.00;3.00;;;;;21.11;54.23;101170.59;5075093;27;45843;-78
2023/06/26 01:17:47;;;;;;;;;6.00;4.75;;;;;21.08;54.30;101161.97;5069110;28;71465;-78
2023/06/26 01:20:15;;;;;;;;;5.75;4.75;;;;;21.04;54.28;101167.47;5076548;27;46201;-78
2023/06/26 01:23:05;;;;;;;;;5.50;3.75;;;;;21.05;54.53;101173.66;5065946;27;45570;-78
2023/06/26 01:25:50;;;;;;;;;9.25;6.00;;;;;20.99;54.83;101180.22;5073401;27;45453;-78
2023/06/26 01:28:17;;;;;;;;;8.25;5.25;;;;;20.97;54.92;101192.78;5085530;27;45628;-78
2023/06/26 01:30:44;;;;;;;;;7.25;6.00;;;;;20.94;55.37;101190.28;5058647;27;75546;-78
2023/06/26 01:33:11;;;;;;;;;6.00;5.00;;;;;20.86;55.48;101182.81;5081360;27;45173;-78
2023/06/26 01:35:36;;;;;;;;;6.00;5.00;;;;;20.89;55.49;101189.72;5075599;27;45512;-78
2023/06/26 01:38:18;;;;;;;;;6.75;4.50;;;;;20.90;55.07;101190.59;5081114;27;45938;-79
2023/06/26 01:40:44;;;;;;;;;5.75;5.00;;;;;20.86;55.20;101188.13;5073525;27;46957;-78
2023/06/26 01:43:19;;;;;;;;;9.00;6.00;;;;;20.88;55.19;101198.69;5070242;27;45334;-78
2023/06/26 01:45:46;;;;;;;;;6.50;6.00;;;;;20.84;55.38;101208.66;5077547;27;45373;-78
2023/06/26 01:48:12;;;;;;;;;8.25;6.00;;;;;20.83;55.20;101201.63;5080591;27;45366;-79
2023/06/26 01:50:39;;;;;;;;;5.00;5.00;;;;;20.85;55.37;101214.81;5071391;27;45833;-79
2023/06/26 01:53:11;;;;;;;;;11.50;5.50;;;;;20.88;55.65;101219.97;5051438;28;57179;-78
2023/06/26 01:55:42;;;;;;;;;5.25;5.25;;;;;20.83;55.63;101212.25;5057709;28;45433;-79
2023/06/26 01:58:08;;;;;;;;;10.75;7.00;;;;;20.83;55.81;101206.94;5074378;27;45381;-78
2023/06/26 02:00:34;;;;;;;;;9.75;7.25;;;;;20.86;55.40;101220.06;5075298;27;46418;-79
2023/06/26 02:03:00;;;;;;;;;7.25;6.75;;;;;20.86;55.74;101216.56;5076151;27;45584;-78
2023/06/26 02:05:25;;;;;;;;;8.00;7.25;;;;;20.83;55.55;101222.91;5073533;27;45441;-79
2023/06/26 02:07:51;;;;;;;;;10.00;7.00;;;;;20.82;55.32;101223.88;5060692;28;45491;-79
2023/06/26 02:10:17;;;;;;;;;10.00;7.25;;;;;20.80;55.23;101231.06;5077783;27;46776;-78
2023/06/26 02:12:42;;;;;;;;;10.25;7.75;;;;;20.80;54.77;101233.72;5059381;28;45342;-78
2023/06/26 02:15:08;;;;;;;;;8.75;8.00;;;;;20.75;54.71;101240.28;5071973;27;49233;-78
2023/06/26 02:17:34;;;;;;;;;6.00;5.75;;;;;20.73;54.58;101240.38;5077758;28;45557;-78
2023/06/26 02:19:59;;;;;;;;;6.75;4.50;;;;;20.71;55.09;101242.28;5057929;28;46943;-79
2023/06/26 02:22:24;;;;;;;;;7.25;6.00;;;;;20.67;54.77;101240.78;5075352;27;55625;-78
2023/06/26 02:24:50;;;;;;;;;9.75;7.25;;;;;20.64;54.60;101246.25;5072921;28;45478;-78
2023/06/26 02:27:15;;;;;;;;;11.25;7.00;;;;;20.63;54.76;101250.75;5072059;28;46107;-78
2023/06/26 02:29:42;;;;;;;;;8.25;6.75;;;;;20.61;54.75;101236.69;5070078;27;45580;-78
2023/06/26 02:32:08;;;;;;;;;8.75;6.50;;;;;20.58;54.91;101242.16;5084058;27;45310;-78
2023/06/26 02:34:34;;;;;;;;;9.25;4.00;;;;;20.59;54.63;101248.31;5059141;28;45481;-78
2023/06/26 02:37:00;;;;;;;;;8.50;4.00;;;;;20.57;54.74;101259.03;5072408;27;45310;-78
2023/06/26 02:39:26;;;;;;;;;6.75;3.25;;;;;20.51;53.88;101253.25;5061944;28;47869;-79
2023/06/26 02:41:51;;;;;;;;;3.50;2.75;;;;;20.51;53.92;101254.13;5076510;28;45576;-78
2023/06/26 02:44:16;;;;;;;;;1.50;1.00;;;;;20.47;53.99;101268.56;5064698;27;45573;-78
2023/06/26 02:46:42;;;;;;;;;2.00;2.00;;;;;20.41;53.44;101268.91;5075600;28;70539;-78
2023/06/26 02:49:07;;;;;;;;;2.00;1.25;;;;;20.33;53.70;101272.03;5068543;27;46199;-79
2023/06/26 02:51:33;;;;;;;;;2.25;2.00;;;;;20.26;53.61;101281.31;5069383;28;52773;-78
2023/06/26 02:53:59;;;;;;;;;1.00;1.00;;;;;20.22;53.70;101272.66;5055008;28;45484;-79
2023/06/26 02:56:28;;;;;;;;;2.00;2.00;;;;;20.21;53.37;101281.56;5075690;28;45694;-76
2023/06/26 02:58:57;;;;;;;;;2.25;2.00;;;;;20.16;53.18;101278.31;5074924;27;47291;-79
2023/06/26 03:01:23;;;;;;;;;1.75;1.75;;;;;20.10;53.41;101281.34;5072328;28;45593;-79
2023/06/26 03:03:48;;;;;;;;;1.75;1.50;;;;;20.00;53.58;101282.84;5063344;27;45331;-77
2023/06/26 03:06:14;;;;;;;;;3.50;2.00;;;;;19.96;53.47;101279.50;5075809;28;65734;-79
2023/06/26 03:08:40;;;;;;;;;3.25;2.00;;;;;19.96;53.39;101278.66;5073623;27;45654;-77
2023/06/26 03:11:06;;;;;;;;;3.25;2.00;;;;;19.92;53.81;101278.81;5073770;28;45523;-77
2023/06/26 03:13:34;;;;;;;;;3.75;2.00;;;;;19.90;53.60;101280.72;5071996;27;45359;-77
2023/06/26 03:16:00;;;;;;;;;1.50;1.00;;;;;19.92;53.96;101283.28;5071267;27;45502;-77
2023/06/26 03:18:25;;;;;;;;;3.00;3.00;;;;;19.92;53.64;101276.16;5077360;27;47929;-77
2023/06/26 03:20:52;;;;;;;;;3.00;2.75;;;;;19.97;54.03;101291.81;5074813;28;66240;-76
2023/06/26 03:23:18;;;;;;;;;4.75;1.00;;;;;19.97;54.07;101286.50;5068607;27;45474;-77
2023/06/26 03:25:43;;;;;;;;;1.75;1.00;;;;;19.92;54.03;101288.59;5068432;27;65085;-77
2023/06/26 03:28:08;;;;;;;;;4.25;3.25;;;;;19.91;54.00;101297.50;5048942;28;47139;-78
2023/06/26 03:30:34;;;;;;;;;3.00;1.00;;;;;19.88;53.74;101295.88;5074787;28;45461;-78
2023/06/26 03:32:59;;;;;;;;;2.75;2.00;;;;;19.82;53.98;101295.38;5061654;27;52372;-78
2023/06/26 03:35:24;;;;;;;;;3.75;2.00;;;;;19.78;53.62;101292.03;5070259;28;71893;-78
2023/06/26 03:37:50;;;;;;;;;3.75;2.00;;;;;19.73;54.25;101289.63;5060274;27;48406;-79
2023/06/26 03:40:15;;;;;;;;;3.00;2.75;;;;;19.68;53.94;101289.00;5068690;27;59516;-79
2023/06/26 03:42:41;;;;;;;;;4.75;2.00;;;;;19.71;54.57;101302.13;5075423;27;50063;-79
2023/06/26 03:45:06;;;;;;;;;4.50;2.00;;;;;19.72;54.41;101314.47;5069603;28;45470;-78
2023/06/26 03:47:32;;;;;;;;;3.00;2.00;;;;;19.72;54.32;101303.84;5060715;28;47228;-78
2023/06/26 03:49:57;;;;;;;;;3.75;1.75;;;;;19.77;54.29;101319.53;5050074;28;45399;-78
2023/06/26 03:52:23;;;;;;;;;2.50;2.00;;;;;19.79;54.27;101320.28;5071872;28;67515;-77
2023/06/26 03:54:49;;;;;;;;;4.00;2.00;;;;;19.83;54.42;101326.28;5065725;27;48264;-78
2023/06/26 03:57:14;;;;;;;;;5.75;2.00;;;;;19.82;54.21;101328.09;5069223;27;57799;-78
2023/06/26 03:59:39;;;;;;;;;6.00;2.75;;;;;19.81;54.34;101336.16;5056493;28;45681;-78
2023/06/26 04:02:05;;;;;;;;;4.75;3.00;;;;;19.76;54.16;101336.44;5068667;28;65362;-77
2023/06/26 04:04:30;;;;;;;;;2.25;2.00;;;;;19.72;54.24;101337.47;5056635;28;64055;-77
2023/06/26 04:06:55;;;;;;;;;3.75;2.00;;;;;19.72;54.55;101334.81;5057268;28;48683;-77
2023/06/26 04:09:21;;;;;;;;;6.00;2.00;;;;;19.73;54.83;101342.75;5076126;28;45490;-77
2023/06/26 04:11:46;;;;;;;;;4.25;4.00;;;;;19.70;54.71;101342.03;5073831;28;65433;-78
2023/06/26 04:14:12;;;;;;;;;7.50;2.75;;;;;19.69;55.02;101343.84;5054617;28;45570;-77
2023/06/26 04:16:38;;;;;;;;;6.00;3.75;;;;;19.74;54.14;101351.56;5056504;28;48393;-78
2023/06/26 04:19:04;;;;;;;;;8.50;5.00;;;;;19.71;55.03;101355.22;5058225;28;45510;-78
2023/06/26 04:21:30;;;;;;;;;4.50;2.75;;;;;19.74;55.05;101362.19;5076221;28;45318;-77
2023/06/26 04:23:55;;;;;;;;;6.50;2.75;;;;;19.74;54.48;101364.84;5074253;28;45499;-78
2023/06/26 04:26:20;;;;;;;;;4.00;4.00;;;;;19.68;55.17;101358.03;5069481;28;75192;-75
2023/06/26 04:28:46;;;;;;;;;2.00;2.00;;;;;19.63;55.85;101361.91;5069686;28;50632;-77
2023/06/26 04:31:11;;;;;;;;;6.50;4.00;;;;;19.57;55.49;101367.56;5057721;28;61016;-75
2023/06/26 04:33:37;;;;;;;;;5.25;3.75;;;;;19.57;55.41;101371.06;5066393;28;59239;-76
2023/06/26 04:36:06;;;;;;;;;6.25;4.00;;;;;19.57;55.16;101368.41;5069617;28;45332;-76
2023/06/26 04:38:34;;;;;;;;;6.50;4.00;;;;;19.57;55.33;101364.91;5076164;28;45386;-76
2023/06/26 04:41:01;;;;;;;;;3.50;3.00;;;;;19.62;55.12;101368.13;5061201;28;45986;-76
2023/06/26 04:43:26;;;;;;;;;5.25;3.00;;;;;19.68;55.00;101373.97;5066126;28;45322;-75
2023/06/26 04:45:51;;;;;;;;;5.75;3.00;;;;;19.66;55.20;101370.56;5074779;27;75544;-75
2023/06/26 04:48:17;;;;;;;;;2.50;2.50;;;;;19.70;55.31;101368.59;5071032;28;45496;-76
2023/06/26 04:50:42;;;;;;;;;4.25;3.00;;;;;19.73;55.68;101373.72;5069706;27;45517;-76
2023/06/26 04:53:07;;;;;;;;;7.25;3.75;;;;;19.77;55.79;101371.78;5060970;28;66630;-75
2023/06/26 04:55:33;;;;;;;;;4.50;3.75;;;;;19.81;54.86;101381.28;5070328;28;45462;-76
2023/06/26 04:57:58;;;;;;;;;3.50;3.00;;;;;19.82;54.96;101377.72;5068488;28;70151;-76
2023/06/26 05:00:24;;;;;;;;;5.00;2.75;;;;;19.87;55.08;101380.97;5070854;27;51264;-77
2023/06/26 05:03:00;;;;;;;;;6.25;3.50;;;;;19.95;54.87;101384.03;5069149;28;45672;-72
2023/06/26 05:05:25;;;;;;;;;4.00;3.50;;;;;20.00;55.14;101381.13;5061143;28;47026;-72
2023/06/26 05:07:53;;;;;;;;;8.00;4.00;;;;;20.07;54.89;101390.47;5056576;28;46080;-72
2023/06/26 05:10:18;;;;;;;;;5.75;3.00;;;;;20.10;54.83;101393.81;5075855;28;45432;-73
2023/06/26 05:12:44;;;;;;;;;5.75;4.50;;;;;19.91;55.12;101395.78;5066155;28;59059;-73
2023/06/26 05:15:09;;;;;;;;;6.25;4.00;;;;;19.88;54.99;101394.16;5067374;27;70271;-73
2023/06/26 05:17:34;;;;;;;;;6.25;4.75;;;;;19.95;55.01;101405.28;5073323;27;45473;-73
2023/06/26 05:20:00;;;;;;;;;3.75;3.75;;;;;19.96;55.07;101404.34;5077670;27;52397;-73
2023/06/26 05:22:26;;;;;;;;;5.00;5.00;;;;;20.02;54.56;101401.34;5077982;28;54401;-72
2023/06/26 05:24:53;;;;;;;;;5.75;3.75;;;;;19.94;54.45;101403.59;5074514;27;47204;-72
2023/06/26 05:27:21;;;;;;;;;3.75;3.75;;;;;20.02;55.01;101401.34;5079518;28;45177;-73
2023/06/26 05:29:47;;;;;;;;;8.00;5.00;;;;;20.09;54.80;101402.72;5074588;27;45330;-76
2023/06/26 05:32:17;;;;;;;;;5.00;3.00;;;;;20.05;54.92;101414.47;5081380;27;45454;-72
2023/06/26 05:34:44;;;;;;;;;4.75;3.75;;;;;20.04;54.63;101418.09;5076207;27;45575;-74
2023/06/26 05:37:09;;;;;;;;;9.75;3.50;;;;;20.02;54.73;101413.78;5081993;27;45768;-72
2023/06/26 05:39:35;;;;;;;;;2.75;2.75;;;;;20.12;54.63;101420.31;5072855;27;45608;-73
2023/06/26 05:42:01;;;;;;;;;8.50;5.00;;;;;20.04;54.82;101420.75;5077139;28;46429;-80
2023/06/26 05:44:26;;;;;;;;;4.25;4.25;;;;;19.91;55.08;101417.88;5050512;28;47270;-78
2023/06/26 05:46:51;;;;;;;;;6.75;5.00;;;;;19.82;54.50;101415.75;5076427;28;70031;-75
2023/06/26 05:49:16;;;;;;;;;6.25;5.00;;;;;19.79;54.89;101415.91;5050919;28;56437;-73
2023/06/26 05:51:42;;;;;;;;;8.00;5.00;;;;;19.84;54.93;101410.34;5074963;28;68651;-73
2023/06/26 05:54:08;;;;;;;;;6.00;6.00;;;;;19.96;55.04;101425.63;5066512;28;47668;-74
2023/06/26 05:56:33;;;;;;;;;9.00;5.75;;;;;19.99;54.87;101414.81;5059100;28;45434;-72
2023/06/26 05:58:59;;;;;;;;;8.50;6.00;;;;;20.00;54.62;101416.53;5054507;28;45439;-73
2023/06/26 06:01:24;;;;;;;;;8.25;6.50;;;;;20.00;54.78;101424.50;5077709;27;67584;-76
2023/06/26 06:03:50;;;;;;;;;5.50;5.00;;;;;20.04;54.83;101415.44;5059460;28;76775;-77
2023/06/26 06:06:15;;;;;;;;;9.00;6.50;;;;;20.10;54.37;101422.19;5073889;28;57059;-76
2023/06/26 06:08:41;;;;;;;;;8.50;6.50;;;;;20.15;54.67;101419.25;5079986;27;46543;-76
2023/06/26 06:11:06;;;;;;;;;11.00;6.00;;;;;20.20;54.38;101425.16;5078085;28;45999;-76
2023/06/26 06:13:32;;;;;;;;;11.00;6.50;;;;;20.26;54.18;101425.69;5077504;27;45323;-76
2023/06/26 06:15:57;;;;;;;;;9.25;6.50;;;;;20.35;54.26;101429.63;5072249;28;45555;-71
2023/06/26 06:18:23;;;;;;;;;9.25;5.00;;;;;20.41;53.69;101434.56;5079710;28;45292;-74
2023/06/26 06:20:48;;;;;;;;;9.00;5.00;;;;;20.44;53.89;101436.22;5069888;28;69143;-73
2023/06/26 06:23:13;;;;;;;;;10.00;7.75;;;;;20.43;53.53;101434.50;5062783;28;69533;-78
2023/06/26 06:25:39;;;;;;;;;6.00;5.50;;;;;20.29;53.29;101417.56;5075620;28;45332;-79
2023/06/26 06:28:05;;;;;;;;;11.00;8.50;;;;;20.30;53.60;101429.88;5068497;28;49677;-76
2023/06/26 06:30:30;;;;;;;;;9.25;7.50;;;;;20.28;53.43;101433.56;5074806;28;45738;-75
2023/06/26 06:32:55;;;;;;;;;7.50;6.25;;;;;20.24;53.59;101440.88;5079406;27;64068;-75
2023/06/26 06:35:21;;;;;;;;;10.25;6.50;;;;;20.17;53.79;101441.28;5074041;27;56242;-75
2023/06/26 06:37:46;;;;;;;;;7.00;5.00;;;;;20.15;53.77;101451.16;5063731;28;52902;-81
2023/06/26 06:40:12;;;;;;;;;6.50;5.00;;;;;20.20;53.68;101454.41;5067040;27;45458;-75
2023/06/26 06:42:37;;;;;;;;;6.25;5.00;;;;;20.24;54.02;101459.47;5069739;28;46504;-75
2023/06/26 06:45:04;;;;;;;;;9.50;5.00;;;;;20.36;53.45;101465.03;5077371;28;58163;-77
2023/06/26 06:47:29;;;;;;;;;10.75;7.00;;;;;20.41;53.23;101460.31;5064366;28;45481;-75
2023/06/26 06:49:55;;;;;;;;;4.50;4.50;;;;;20.51;53.61;101461.50;5053657;28;45465;-77
2023/06/26 06:52:20;;;;;;;;;7.50;5.00;;;;;20.58;53.43;101462.88;5072718;28;59095;-74
2023/06/26 06:54:53;;;;;;;;;6.25;5.50;;;;;20.69;53.27;101469.41;5067976;28;52225;-77
2023/06/26 06:57:20;;;;;;;;;9.00;6.00;;;;;20.84;52.83;101469.38;5073887;28;45498;-76
2023/06/26 06:59:46;;;;;;;;;6.50;4.75;;;;;20.90;52.29;101472.63;5045069;28;45790;-78
2023/06/26 07:02:11;;;;;;;;;5.50;4.50;;;;;20.89;51.95;101477.06;5063816;28;48038;-77
2023/06/26 07:04:36;;;;;;;;;6.50;6.50;;;;;20.90;51.95;101476.13;5063837;28;52898;-76
2023/06/26 07:07:02;;;;;;;;;7.75;4.75;;;;;20.94;52.00;101472.34;5064687;28;63546;-78
2023/06/26 07:09:27;;;;;;;;;7.75;5.00;;;;;20.99;51.97;101469.41;5047581;28;45374;-78
2023/06/26 07:11:52;;;;;;;;;7.00;5.00;;;;;21.13;51.85;101471.25;5078575;28;51608;-76
2023/06/26 07:14:18;;;;;;;;;9.00;7.50;;;;;21.26;51.32;101474.03;5075010;27;66924;-80
2023/06/26 07:16:43;;;;;;;;;5.00;5.00;;;;;21.29;51.42;101460.56;5080572;27;45358;-77
2023/06/26 07:19:08;;;;;;;;;7.00;5.00;;;;;21.32;50.93;101466.53;5076521;28;73012;-76
2023/06/26 07:21:34;;;;;;;;;6.00;5.50;;;;;21.26;50.64;101456.25;5074025;28;68244;-75
2023/06/26 07:23:59;;;;;;;;;8.25;5.00;;;;;21.26;50.91;101466.06;5076812;27;69750;-81
2023/06/26 07:26:24;;;;;;;;;10.00;7.00;;;;;21.26;51.08;101474.88;5077593;27;45474;-76
2023/06/26 07:28:50;;;;;;;;;8.00;6.00;;;;;21.31;50.73;101479.94;5076074;28;66189;-75
2023/06/26 07:31:16;;;;;;;;;6.50;6.00;;;;;21.36;50.88;101480.53;5075665;28;46545;-75
2023/06/26 07:33:42;;;;;;;;;6.25;6.25;;;;;21.42;50.70;101481.03;5075155;27;46508;-75
2023/06/26 07:36:07;;;;;;;;;10.25;5.50;;;;;21.36;50.15;101489.38;5067972;27;45465;-75
2023/06/26 07:38:32;;;;;;;;;6.00;4.25;;;;;21.28;50.16;101483.63;5066441;28;45600;-75
2023/06/26 07:40:58;;;;;;;;;7.00;5.00;;;;;21.31;50.05;101485.28;5063912;27;47931;-75
2023/06/26 07:43:23;;;;;;;;;4.50;4.00;;;;;21.49;49.70;101486.00;5058983;28;45715;-75
2023/06/26 07:45:51;;;;;;;;;9.25;6.25;;;;;21.57;49.79;101484.56;5071289;27;45424;-75
2023/06/26 07:48:16;;;;;;;;;10.00;6.00;;;;;21.64;49.55;101498.38;5074837;28;45430;-75
2023/06/26 07:50:42;;;;;;;;;7.50;5.75;;;;;21.62;48.90;101505.59;5078116;28;47725;-75
2023/06/26 07:53:07;;;;;;;;;5.25;4.00;;;;;21.59;49.23;101506.63;5083469;27;45282;-75
2023/06/26 07:55:32;;;;;;;;;6.50;5.00;;;;;21.68;49.01;101504.38;5077445;27;45370;-75
2023/06/26 07:57:58;;;;;;;;;5.25;5.00;;;;;21.81;48.81;101502.66;5075949;28;45430;-75
2023/06/26 08:00:23;;;;;;;;;6.75;5.00;;;;;21.93;48.43;101496.53;5073039;28;45363;-75
2023/06/26 08:02:49;;;;;;;;;7.00;6.00;;;;;22.02;48.50;101502.25;5058090;28;45298;-75
2023/06/26 08:05:14;;;;;;;;;8.50;5.00;;;;;22.03;48.09;101506.63;5071884;27;68356;-75
2023/06/26 08:07:40;;;;;;;;;9.00;6.25;;;;;22.11;47.47;101497.19;5078815;28;46150;-75
2023/06/26 08:10:05;;;;;;;;;6.25;4.25;;;;;22.13;47.69;101499.75;5052954;28;51760;-75
2023/06/26 08:12:31;;;;;;;;;6.00;5.00;;;;;22.18;47.48;101511.84;5076679;27;46414;-75
2023/06/26 08:14:56;;;;;;;;;6.25;4.50;;;;;22.27;47.65;101507.75;5057214;28;45297;-75
2023/06/26 08:17:21;;;;;;;;;8.50;6.00;;;;;22.25;46.95;101511.47;5077790;28;45331;-75
2023/06/26 08:19:47;;;;;;;;;7.25;4.50;;;;;22.25;47.18;101509.66;5076642;27;47176;-75
2023/06/26 08:22:12;;;;;;;;;6.00;4.75;;;;;22.34;47.53;101517.09;5077617;27;59845;-75
2023/06/26 08:24:38;;;;;;;;;5.25;4.25;;;;;22.43;47.46;101514.78;5075347;27;45447;-75
2023/06/26 08:27:03;;;;;;;;;7.50;4.00;;;;;22.53;46.28;101511.41;5057482;28;61517;-75
2023/06/26 08:29:29;;;;;;;;;4.25;3.25;;;;;22.69;46.22;101521.94;5070606;28;46388;-75
2023/06/26 08:31:54;;;;;;;;;7.00;4.50;;;;;22.85;46.20;101519.13;5065455;27;45415;-75
2023/06/26 08:34:20;;;;;;;;;6.00;3.75;;;;;22.84;45.86;101509.41;5077743;27;64394;-75
2023/06/26 08:36:45;;;;;;;;;3.00;3.00;;;;;22.80;45.74;101507.03;5071036;28;70724;-75
2023/06/26 08:39:10;;;;;;;;;5.25;3.75;;;;;22.81;45.56;101503.44;5076292;27;46053;-75
2023/06/26 08:41:36;;;;;;;;;3.00;3.00;;;;;22.89;45.75;101498.41;5076775;28;47812;-75
2023/06/26 08:44:03;;;;;;;;;4.00;3.25;;;;;23.00;45.48;101493.22;5076690;27;45512;-75
2023/06/26 08:46:28;;;;;;;;;5.25;4.25;;;;;23.11;45.19;101497.88;5076619;28;45295;-75
2023/06/26 08:49:01;;;;;;;;;4.75;3.50;;;;;23.12;45.05;101513.78;5075044;27;68831;-75
2023/06/26 08:51:28;;;;;;;;;3.75;3.75;;;;;23.12;44.11;101502.25;5081114;27;45310;-75
2023/06/26 08:53:58;;;;;;;;;10.25;5.50;;;;;23.10;44.63;101505.00;5077688;27;45524;-75
2023/06/26 08:56:25;;;;;;;;;5.00;3.25;;;;;23.10;44.37;101502.34;5081842;27;45403;-75
2023/06/26 08:58:51;;;;;;;;;6.00;4.50;;;;;23.16;44.12;101497.53;5063573;28;46248;-75
2023/06/26 09:01:16;;;;;;;;;3.50;2.25;;;;;23.21;43.79;101501.59;5080392;27;45169;-75
2023/06/26 09:03:42;;;;;;;;;8.25;5.00;;;;;23.23;44.09;101498.84;5061615;27;45307;-75
2023/06/26 09:06:07;;;;;;;;;4.00;3.25;;;;;23.16;44.40;101508.22;5081324;28;49542;-75
2023/06/26 09:08:33;;;;;;;;;4.25;3.50;;;;;23.15;44.12;101511.88;5076514;27;45556;-75
2023/06/26 09:10:58;;;;;;;;;7.25;4.75;;;;;23.23;44.17;101510.41;5058943;28;46080;-75
2023/06/26 09:13:23;;;;;;;;;6.50;3.75;;;;;23.21;44.48;101504.28;5080328;27;62358;-75
2023/06/26 09:15:49;;;;;;;;;4.00;3.75;;;;;23.19;43.48;101508.88;5078950;27;49451;-75
2023/06/26 09:18:18;;;;;;;;;5.00;3.25;;;;;23.15;43.34;101510.06;5076294;28;57428;-75
2023/06/26 09:20:43;;;;;;;;;6.00;4.75;;;;;;;;5079377;27;45466;-75
2023/06/26 09:23:09;;;;;;;;;5.00;4.33;;;;;23.03;43.02;101506.34;5079942;28;45330;-75
2023/06/26 09:25:38;;;;;;;;;4.50;2.50;;;;;23.05;42.62;101498.28;5079972;27;45433;-75
2023/06/26 09:28:03;;;;;;;;;5.00;2.25;;;;;23.07;42.65;101501.69;5072700;28;47372;-75
2023/06/26 09:30:32;;;;;;;;;6.00;4.00;;;;;23.21;42.10;101503.44;5080659;27;45204;-75
2023/06/26 09:32:57;;;;;;;;;7.00;3.25;;;;;23.39;42.27;101507.53;5086534;27;45523;-75
2023/06/26 09:35:23;;;;;;;;;5.25;3.00;;;;;23.50;41.42;101496.09;5080466;27;45473;-75
2023/06/26 09:37:49;;;;;;;;;5.75;5.50;;;;;23.59;41.78;101502.63;5071917;28;46324;-75
2023/06/26 09:40:14;;;;;;;;;4.75;4.00;;;;;23.63;41.45;101512.97;5070801;27;45625;-75
2023/06/26 09:42:41;;;;;;;;;9.75;6.75;;;;;23.60;41.03;101509.66;5080633;27;45479;-76
2023/06/26 09:45:06;;;;;;;;;4.75;3.00;;;;;23.57;41.48;101516.09;5078846;28;47815;-75
2023/06/26 09:47:34;;;;;;;;;3.00;3.00;;;;;23.61;41.35;101509.56;5084890;27;45635;-74
2023/06/26 09:49:59;;;;;;;;;4.50;3.50;;;;;23.64;40.55;101508.50;5070557;27;45561;-75
2023/06/26 09:52:26;;;;;;;;;7.50;7.50;;;;;23.65;39.99;101510.19;5045111;28;45392;-76
2023/06/26 09:55:07;;;;;;;;;6.50;5.25;;;;;23.71;39.08;101509.78;5079736;27;45361;-75
2023/06/26 09:57:34;;;;;;;;;7.50;4.50;;;;;23.68;39.07;101510.84;5060491;28;46342;-75
2023/06/26 10:00:00;;;;;;;;;18.00;13.75;;;;;23.67;39.25;101495.78;5078857;28;45974;-75
2023/06/26 10:02:25;;;;;;;;;7.00;4.75;;;;;23.82;38.96;101523.25;5083960;27;45361;-75
2023/06/26 10:04:51;;;;;;;;;6.50;5.00;;;;;23.90;38.80;101522.72;5073819;27;72258;-76
2023/06/26 10:07:17;;;;;;;;;5.00;3.75;;;;;23.94;39.36;101526.91;5079206;28;72375;-75
2023/06/26 10:09:43;;;;;;;;;4.75;3.75;;;;;23.94;39.10;101518.88;5075966;27;45456;-75
2023/06/26 10:12:24;;;;;;;;;4.75;4.00;;;;;23.97;39.05;101528.47;5070089;28;63100;-75
2023/06/26 10:14:50;;;;;;;;;6.50;5.00;;;;;23.91;38.28;101531.59;5071592;27;45436;-75
2023/06/26 10:17:20;;;;;;;;;5.50;4.50;;;;;23.84;39.21;101518.66;5079487;27;46760;-75
2023/06/26 10:19:47;;;;;;;;;5.25;2.75;;;;;23.82;38.95;101520.59;5073735;28;45738;-75
2023/06/26 10:22:15;;;;;;;;;7.25;4.00;;;;;23.81;38.42;101521.53;5064324;28;52620;-75
2023/06/26 10:24:41;;;;;;;;;4.50;3.25;;;;;23.83;38.41;101527.66;5070737;28;45404;-75
2023/06/26 10:27:19;;;;;;;;;3.25;3.00;;;;;23.97;38.26;101534.66;5079602;28;46443;-75
2023/06/26 10:29:57;;;;;;;;;4.00;2.50;;;;;24.18;37.20;101524.25;5075514;27;45549;-76
2023/06/26 10:32:25;;;;;;;;;3.00;2.25;;;;;24.36;37.86;101527.41;5085803;27;45352;-75
2023/06/26 10:34:51;;;;;;;;;6.50;3.00;;;;;24.49;38.00;101527.41;5075449;28;45792;-75
2023/06/26 10:37:17;;;;;;;;;3.50;3.00;;;;;24.62;37.80;101511.31;5070786;27;48121;-75
2023/06/26 10:39:48;;;;;;;;;3.00;1.50;;;;;24.82;36.65;101528.56;5077702;27;65625;-75
2023/06/26 10:42:14;;;;;;;;;12.75;9.50;;;;;24.94;37.87;101529.47;5075542;28;45280;-75
2023/06/26 10:44:42;;;;;;;;;11.75;11.00;;;;;24.90;36.72;101539.56;5075398;27;45693;-74
2023/06/26 10:47:08;;;;;;;;;2.50;2.25;;;;;24.86;36.79;101535.41;5075571;28;45588;-75
2023/06/26 10:49:35;;;;;;;;;4.75;4.50;;;;;24.87;35.93;101534.44;5077700;28;71788;-75
2023/06/26 10:52:01;;;;;;;;;4.50;4.50;;;;;24.85;36.31;101532.84;5079351;28;45340;-75
2023/06/26 10:54:31;;;;;;;;;2.75;2.75;;;;;24.86;35.87;101521.16;5076137;28;45173;-75
2023/06/26 10:56:56;;;;;;;;;3.25;1.75;;;;;24.85;36.28;101520.31;5078670;27;45466;-75
2023/06/26 10:59:26;;;;;;;;;6.75;4.25;;;;;24.83;36.25;101523.09;5075448;28;65442;-75
2023/06/26 11:02:00;;;;;;;;;6.50;5.25;;;;;24.88;35.97;101524.56;5073405;28;45343;-75
2023/06/26 11:04:44;;;;;;;;;5.50;4.75;;;;;24.92;36.09;101518.88;5074888;27;45682;-75
2023/06/26 11:07:18;;;;;;;;;8.25;6.00;;;;;24.95;35.38;101510.63;5074314;28;46052;-75
2023/06/26 11:10:05;;;;;;;;;8.00;5.00;;;;;25.20;34.91;101517.63;5078457;27;45481;-75
2023/06/26 11:12:47;;;;;;;;;12.25;3.50;;;;;25.38;35.16;101528.78;5079388;28;45369;-75
2023/06/26 11:15:17;;;;;;;;;5.00;5.00;;;;;25.42;35.76;101517.84;5071154;27;45518;-75
2023/06/26 11:17:43;;;;;;;;;8.00;4.25;;;;;25.38;34.80;101527.94;5077038;28;46580;-75
2023/06/26 11:20:14;;;;;;;;;11.75;7.50;;;;;25.41;35.37;101517.00;5075768;27;45323;-75
2023/06/26 11:22:41;;;;;;;;;8.25;5.50;;;;;25.52;34.82;101524.19;5069775;28;45572;-75